createdAt,value
2015-02-17T15:52:51.818Z,202
2015-02-17T15:53:10.133Z,201
2015-02-17T15:53:28.461Z,201
2015-02-17T15:53:46.773Z,201
2015-02-17T15:54:05.229Z,201
2015-02-17T16:14:53.901Z,616
2015-02-17T16:15:11.572Z,616
2015-02-17T16:15:29.904Z,615
2015-02-17T16:15:48.216Z,613
2015-02-17T16:16:06.669Z,614
2015-02-17T16:16:24.343Z,613
2015-02-17T16:16:42.671Z,612
2015-02-17T16:17:00.984Z,614
2015-02-17T16:17:19.327Z,73
2015-02-17T16:17:37.627Z,73
2015-02-17T16:17:55.955Z,72
2015-02-17T16:18:14.268Z,71
2015-02-17T16:18:32.598Z,71
2015-02-17T16:18:50.911Z,70
2015-02-17T16:19:09.239Z,69
2015-02-17T16:19:27.551Z,68
2015-02-17T16:19:45.867Z,67
2015-02-17T16:20:04.195Z,66
2015-02-17T16:20:22.507Z,65
2015-02-17T16:20:40.837Z,64
2015-02-17T16:20:59.150Z,63
2015-02-17T16:21:17.478Z,62
2015-02-17T16:21:35.791Z,60
2015-02-17T16:21:53.449Z,59
2015-02-17T16:22:11.261Z,58
2015-02-17T16:22:29.574Z,57
2015-02-17T16:22:47.905Z,56
2015-02-17T16:23:06.217Z,55
2015-02-17T16:23:24.546Z,54
2015-02-17T16:23:42.217Z,53
2015-02-17T16:24:00.532Z,52
2015-02-17T16:24:18.860Z,51
2015-02-17T16:24:36.532Z,50
2015-02-17T16:24:54.847Z,49
2015-02-17T16:25:13.176Z,48
2015-02-17T16:25:31.504Z,48
2015-02-17T16:25:49.816Z,47
2015-02-17T16:26:08.132Z,47
2015-02-17T16:26:26.460Z,46
2015-02-17T16:26:44.772Z,45
2015-02-17T16:27:03.101Z,44
2015-02-17T16:27:20.758Z,43
2015-02-17T16:27:38.414Z,43
2015-02-17T16:27:56.086Z,42
2015-02-17T16:28:14.401Z,41
2015-02-17T16:28:32.073Z,40
2015-02-17T16:28:50.401Z,40
2015-02-17T16:29:08.716Z,38
2015-02-17T16:29:27.044Z,38
2015-02-17T16:29:45.356Z,38
2015-02-17T16:30:03.685Z,37
2015-02-17T16:30:22.000Z,37
2015-02-17T16:30:40.328Z,36
2015-02-17T16:30:58.641Z,35
2015-02-17T16:31:16.972Z,35
2015-02-17T16:31:35.284Z,34
2015-02-17T16:31:53.612Z,33
2015-02-17T16:32:11.941Z,30
2015-02-17T16:32:30.255Z,29
2015-02-17T16:32:48.583Z,29
2015-02-17T16:33:06.896Z,28
2015-02-17T16:33:25.210Z,27
2015-02-17T16:33:42.882Z,27
2015-02-17T16:34:01.210Z,26
2015-02-17T16:34:19.523Z,26
2015-02-17T16:34:37.854Z,25
2015-02-17T16:34:56.166Z,25
2015-02-17T16:35:14.619Z,24
2015-02-17T16:35:32.293Z,24
2015-02-17T16:35:50.606Z,25
2015-02-17T16:36:08.934Z,26
2015-02-17T16:36:27.246Z,25
2015-02-17T16:36:45.578Z,25
2015-02-17T16:37:03.890Z,24
2015-02-17T16:37:22.218Z,24
2015-02-17T16:37:40.533Z,24
2015-02-17T16:37:58.861Z,24
2015-02-17T16:38:15.876Z,23
2015-02-17T16:38:34.205Z,24
2015-02-17T16:38:52.520Z,23
2015-02-17T16:39:10.848Z,23
2015-02-17T16:39:28.504Z,23
2015-02-17T16:39:46.179Z,23
2015-02-17T16:40:03.836Z,23
2015-02-17T16:40:21.507Z,22
2015-02-17T16:40:39.836Z,22
2015-02-17T16:40:58.149Z,21
2015-02-17T16:41:16.477Z,22
2015-02-17T16:41:34.790Z,21
2015-02-17T16:41:52.465Z,21
2015-02-17T16:42:10.777Z,20
2015-02-17T16:42:28.449Z,20
2015-02-17T16:42:46.777Z,20
2015-02-17T16:43:04.452Z,20
2015-02-17T16:43:22.764Z,19
2015-02-17T16:43:41.093Z,19
2015-02-17T16:43:59.407Z,19
2015-02-17T16:44:17.735Z,19
2015-02-17T16:44:36.048Z,18
2015-02-17T16:44:54.376Z,18
2015-02-17T16:45:12.706Z,18
2015-02-17T16:45:31.034Z,17
2015-02-17T16:45:49.347Z,17
2015-02-17T16:46:07.678Z,17
2015-02-17T16:46:26.006Z,16
2015-02-17T16:46:44.318Z,16
2015-02-17T16:47:02.646Z,15
2015-02-17T16:47:20.961Z,15
2015-02-17T16:47:38.633Z,15
2015-02-17T16:47:56.945Z,15
2015-02-17T16:48:14.620Z,14
2015-02-17T16:48:32.948Z,14
2015-02-17T16:48:51.261Z,14
2015-02-17T16:49:09.589Z,13
2015-02-17T16:49:27.903Z,13
2015-02-17T16:49:46.232Z,13
2015-02-17T16:50:04.685Z,13
2015-02-17T16:50:23.000Z,13
2015-02-17T16:50:41.328Z,13
2015-02-17T16:50:59.641Z,13
2015-02-17T16:51:18.094Z,13
2015-02-17T16:51:36.424Z,12
2015-02-17T16:51:54.737Z,12
2015-02-17T16:52:13.065Z,12
2015-02-17T16:52:31.379Z,12
2015-02-17T16:52:49.832Z,12
2015-02-17T16:53:08.285Z,11
2015-02-17T16:53:26.614Z,11
2015-02-17T16:53:44.929Z,11
2015-02-17T16:54:03.257Z,11
2015-02-17T16:54:21.710Z,10
2015-02-17T16:54:40.025Z,10
2015-02-17T16:54:58.353Z,10
2015-02-17T16:55:16.665Z,10
2015-02-17T16:55:34.978Z,10
2015-02-17T16:55:53.309Z,9
2015-02-17T16:56:11.622Z,9
2015-02-17T16:56:29.950Z,9
2015-02-17T16:56:48.264Z,9
2015-02-17T16:57:06.592Z,9
2015-02-17T16:57:24.905Z,9
2015-02-17T16:57:43.233Z,8
2015-02-17T16:58:01.547Z,8
2015-02-17T16:58:19.860Z,8
2015-02-17T16:58:38.188Z,8
2015-02-17T16:58:56.520Z,8
2015-02-17T16:59:14.833Z,8
2015-02-17T16:59:33.161Z,7
2015-02-17T16:59:51.473Z,7
2015-02-17T17:00:09.802Z,7
2015-02-17T17:00:28.115Z,7
2015-02-17T17:00:46.427Z,7
2015-02-17T17:01:04.759Z,7
2015-02-17T17:01:23.087Z,7
2015-02-17T17:01:41.415Z,6
2015-02-17T17:01:59.727Z,6
2015-02-17T17:02:18.057Z,6
2015-02-17T17:02:36.370Z,6
2015-02-17T17:02:54.682Z,6
2015-02-17T17:03:13.014Z,6
2015-02-17T17:03:31.326Z,6
2015-02-17T17:03:49.654Z,6
2015-02-17T17:04:07.967Z,6
2015-02-17T17:04:26.282Z,6
2015-02-17T17:04:44.610Z,6
2015-02-17T17:05:02.267Z,6
2015-02-17T17:05:20.597Z,5
2015-02-17T17:05:38.909Z,5
2015-02-17T17:05:57.237Z,5
2015-02-17T17:06:15.550Z,5
2015-02-17T17:06:34.005Z,5
2015-02-17T17:06:52.333Z,5
2015-02-17T17:07:10.646Z,5
2015-02-17T17:07:28.961Z,5
2015-02-17T17:07:47.414Z,5
2015-02-17T17:08:05.727Z,5
2015-02-17T17:08:23.399Z,5
2015-02-17T17:08:41.713Z,4
2015-02-17T17:09:00.041Z,5
2015-02-17T17:09:18.354Z,4
2015-02-17T17:09:36.669Z,4
2015-02-17T17:09:54.997Z,5
2015-02-17T17:10:13.310Z,4
2015-02-17T17:10:31.638Z,4
2015-02-17T17:10:49.953Z,4
2015-02-17T17:11:08.282Z,4
2015-02-17T17:11:26.594Z,5
2015-02-17T17:11:44.924Z,4
2015-02-17T17:12:03.237Z,4
2015-02-17T17:12:21.549Z,4
2015-02-17T17:12:39.877Z,4
2015-02-17T17:12:58.192Z,4
2015-02-17T17:13:16.520Z,4
2015-02-17T17:13:34.832Z,4
2015-02-17T17:13:53.147Z,4
2015-02-17T17:14:11.475Z,4
2015-02-17T17:14:29.788Z,4
2015-02-17T17:14:48.116Z,4
2015-02-17T17:15:05.775Z,4
2015-02-17T17:15:24.087Z,4
2015-02-17T17:15:42.400Z,4
2015-02-17T17:16:00.089Z,4
2015-02-17T17:16:17.746Z,3
2015-02-17T17:16:35.418Z,4
2015-02-17T17:16:53.730Z,3
2015-02-17T17:17:12.061Z,4
2015-02-17T17:17:30.374Z,4
2015-02-17T17:17:48.827Z,4
2015-02-17T17:18:07.158Z,4
2015-02-17T17:18:25.486Z,4
2015-02-17T17:18:43.799Z,4
2015-02-17T17:19:02.111Z,5
2015-02-17T17:19:20.457Z,4
2015-02-17T17:19:38.754Z,4
2015-02-17T17:19:57.082Z,4
2015-02-17T17:20:15.397Z,4
2015-02-17T17:20:33.069Z,4
2015-02-17T17:20:51.382Z,4
2015-02-17T17:21:09.038Z,4
2015-02-17T17:21:27.384Z,4
2015-02-17T17:21:45.696Z,4
2015-02-17T17:22:04.009Z,4
2015-02-17T17:22:21.667Z,4
2015-02-17T17:22:39.995Z,4
2015-02-17T17:22:58.308Z,4
2015-02-17T17:23:16.636Z,4
2015-02-17T17:23:34.950Z,4
2015-02-17T17:23:53.278Z,4
2015-02-17T17:24:11.591Z,4
2015-02-17T17:24:29.906Z,4
2015-02-17T17:24:48.234Z,4
2015-02-17T17:25:06.547Z,4
2015-02-17T17:25:24.877Z,4
2015-02-17T17:25:43.190Z,4
2015-02-17T17:26:01.502Z,4
2015-02-17T17:26:19.830Z,4
2015-02-17T17:26:38.146Z,4
2015-02-17T17:26:56.474Z,4
2015-02-17T17:27:14.786Z,4
2015-02-17T17:27:33.241Z,4
2015-02-17T17:27:51.554Z,4
2015-02-17T17:28:09.226Z,4
2015-02-17T17:28:27.540Z,4
2015-02-17T17:28:45.868Z,4
2015-02-17T17:29:03.540Z,4
2015-02-17T17:29:21.853Z,4
2015-02-17T17:29:40.184Z,4
2015-02-17T17:29:58.496Z,4
2015-02-17T17:30:16.809Z,4
2015-02-17T17:30:34.483Z,4
2015-02-17T17:30:52.936Z,4
2015-02-17T17:31:11.264Z,4
2015-02-17T17:31:29.580Z,4
2015-02-17T17:31:47.908Z,4
2015-02-17T17:32:06.220Z,4
2015-02-17T17:32:23.892Z,4
2015-02-17T17:32:42.207Z,4
2015-02-17T17:33:00.535Z,4
2015-02-17T17:33:18.847Z,4
2015-02-17T17:33:36.505Z,3
2015-02-17T17:33:54.834Z,3
2015-02-17T17:34:13.146Z,4
2015-02-17T17:34:31.474Z,4
2015-02-17T17:34:49.790Z,4
2015-02-17T17:35:07.462Z,4
2015-02-17T17:35:25.790Z,4
2015-02-17T17:35:44.104Z,4
2015-02-17T17:36:02.557Z,4
2015-02-17T17:36:20.885Z,4
2015-02-17T17:36:39.198Z,4
2015-02-17T17:36:56.873Z,4
2015-02-17T17:37:15.185Z,4
2015-02-17T17:37:33.513Z,4
2015-02-17T17:37:51.828Z,4
2015-02-17T17:38:10.156Z,4
2015-02-17T17:38:28.469Z,4
2015-02-17T17:38:46.781Z,4
2015-02-17T17:39:05.236Z,4
2015-02-17T17:39:23.564Z,4
2015-02-17T17:39:41.892Z,4
2015-02-17T17:40:00.208Z,4
2015-02-17T17:40:18.520Z,4
2015-02-17T17:40:36.849Z,4
2015-02-17T17:40:55.161Z,4
2015-02-17T17:41:13.477Z,4
2015-02-17T17:41:30.492Z,4
2015-02-17T17:41:48.945Z,4
2015-02-17T17:42:07.259Z,4
2015-02-17T17:42:25.571Z,4
2015-02-17T17:42:44.040Z,4
2015-02-17T17:43:02.353Z,4
2015-02-17T17:43:20.684Z,4
2015-02-17T17:43:38.996Z,4
2015-02-17T17:43:57.324Z,4
2015-02-17T17:44:15.639Z,4
2015-02-17T17:44:33.967Z,4
2015-02-17T17:44:52.279Z,4
2015-02-17T17:45:10.592Z,4
2015-02-17T17:45:28.923Z,4
2015-02-17T17:45:46.595Z,4
2015-02-17T17:46:04.907Z,4
2015-02-17T17:46:23.238Z,4
2015-02-17T17:46:41.550Z,4
2015-02-17T17:46:59.863Z,4
2015-02-17T17:47:18.191Z,4
2015-02-17T17:47:36.506Z,4
2015-02-17T17:47:54.834Z,4
2015-02-17T17:48:12.506Z,4
2015-02-17T17:48:30.821Z,4
2015-02-17T17:48:49.149Z,4
2015-02-17T17:49:07.461Z,4
2015-02-17T17:49:25.789Z,4
2015-02-17T17:49:43.464Z,4
2015-02-17T17:50:01.777Z,4
2015-02-17T17:50:20.105Z,4
2015-02-17T17:50:38.420Z,4
2015-02-17T17:50:56.749Z,4
2015-02-17T17:51:15.077Z,4
2015-02-17T17:51:33.389Z,4
2015-02-17T17:51:51.719Z,4
2015-02-17T17:52:10.032Z,4
2015-02-17T17:52:28.360Z,4
2015-02-17T17:52:46.675Z,4
2015-02-17T17:53:05.004Z,4
2015-02-17T17:53:23.316Z,4
2015-02-17T17:53:41.644Z,4
2015-02-17T17:53:59.959Z,4
2015-02-17T17:54:18.287Z,4
2015-02-17T17:54:36.599Z,4
2015-02-17T17:54:55.039Z,4
2015-02-17T17:55:13.367Z,4
2015-02-17T17:55:31.695Z,4
2015-02-17T17:55:50.008Z,4
2015-02-17T17:56:08.323Z,4
2015-02-17T17:56:26.651Z,4
2015-02-17T17:56:44.964Z,4
2015-02-17T17:57:03.294Z,4
2015-02-17T17:57:21.606Z,4
2015-02-17T17:57:39.934Z,4
2015-02-17T17:57:57.591Z,4
2015-02-17T17:58:15.266Z,4
2015-02-17T17:58:33.578Z,4
2015-02-17T17:58:51.906Z,4
2015-02-17T17:59:10.221Z,4
2015-02-17T17:59:28.549Z,4
2015-02-17T17:59:46.861Z,4
2015-02-17T18:00:05.174Z,3
2015-02-17T18:00:23.505Z,4
2015-02-17T18:00:40.521Z,4
2015-02-17T18:00:58.833Z,4
2015-02-17T18:01:16.632Z,4
2015-02-17T18:01:34.304Z,4
2015-02-17T18:01:52.616Z,4
2015-02-17T18:02:10.944Z,4
2015-02-17T18:02:29.259Z,4
2015-02-17T18:02:47.587Z,4
2015-02-17T18:03:05.915Z,4
2015-02-17T18:03:24.231Z,4
2015-02-17T18:03:42.543Z,4
2015-02-17T18:04:00.856Z,4
2015-02-17T18:04:19.184Z,4
2015-02-17T18:04:37.498Z,4
2015-02-17T18:04:55.826Z,4
2015-02-17T18:05:14.139Z,4
2015-02-17T18:05:32.470Z,4
2015-02-17T18:05:50.783Z,4
2015-02-17T18:06:09.142Z,4
2015-02-17T18:06:27.423Z,4
2015-02-17T18:06:45.754Z,4
2015-02-17T18:07:04.067Z,4
2015-02-17T18:07:21.739Z,4
2015-02-17T18:07:40.053Z,4
2015-02-17T18:07:58.522Z,4
2015-02-17T18:08:16.959Z,4
2015-02-17T18:08:35.272Z,4
2015-02-17T18:08:53.071Z,4
2015-02-17T18:09:11.399Z,4
2015-02-17T18:09:29.711Z,4
2015-02-17T18:09:48.042Z,4
2015-02-17T18:10:06.354Z,4
2015-02-17T18:10:24.010Z,4
2015-02-17T18:10:42.338Z,4
2015-02-17T18:11:00.138Z,4
2015-02-17T18:11:18.466Z,4
2015-02-17T18:11:36.779Z,4
2015-02-17T18:11:55.109Z,4
2015-02-17T18:12:13.422Z,4
2015-02-17T18:12:31.078Z,4
2015-02-17T18:12:49.406Z,4
2015-02-17T18:13:07.721Z,4
2015-02-17T18:13:26.034Z,4
2015-02-17T18:13:44.362Z,4
2015-02-17T18:14:02.693Z,4
2015-02-17T18:14:21.006Z,4
2015-02-17T18:14:39.318Z,4
2015-02-17T18:14:57.646Z,4
2015-02-17T18:15:15.975Z,4
2015-02-17T18:15:34.288Z,4
2015-02-17T18:15:52.616Z,4
2015-02-17T18:16:10.933Z,4
2015-02-17T18:16:29.261Z,4
2015-02-17T18:16:47.573Z,4
2015-02-17T18:17:05.901Z,4
2015-02-17T18:17:24.215Z,4
2015-02-17T18:17:42.543Z,4
2015-02-17T18:18:00.855Z,4
2015-02-17T18:18:19.188Z,4
2015-02-17T18:18:37.500Z,4
2015-02-17T18:18:55.828Z,4
2015-02-17T18:19:14.141Z,4
2015-02-17T18:19:32.455Z,4
2015-02-17T18:19:50.783Z,4
2015-02-17T18:20:09.143Z,4
2015-02-17T18:20:27.426Z,4
2015-02-17T18:20:45.754Z,4
2015-02-17T18:21:04.067Z,4
2015-02-17T18:21:22.395Z,4
2015-02-17T18:21:40.835Z,4
2015-02-17T18:21:59.163Z,4
2015-02-17T18:22:17.476Z,4
2015-02-17T18:22:35.806Z,4
2015-02-17T18:22:54.118Z,4
2015-02-17T18:23:12.447Z,4
2015-02-17T18:23:30.759Z,4
2015-02-17T18:23:48.558Z,4
2015-02-17T18:24:06.886Z,4
2015-02-17T18:24:25.199Z,4
2015-02-17T18:24:43.530Z,4
2015-02-17T18:25:01.842Z,4
2015-02-17T18:25:20.155Z,4
2015-02-17T18:25:38.483Z,4
2015-02-17T18:25:56.938Z,3
2015-02-17T18:26:15.250Z,4
2015-02-17T18:26:33.563Z,4
2015-02-17T18:26:51.894Z,4
2015-02-17T18:27:10.207Z,4
2015-02-17T18:27:28.535Z,4
2015-02-17T18:27:46.847Z,4
2015-02-17T18:28:05.163Z,4
2015-02-17T18:28:23.491Z,4
2015-02-17T18:28:41.803Z,4
2015-02-17T18:29:00.117Z,4
2015-02-17T18:29:18.445Z,4
2015-02-17T18:29:36.773Z,4
2015-02-17T18:29:55.086Z,4
2015-02-17T18:30:13.417Z,4
2015-02-17T18:30:31.729Z,4
2015-02-17T18:30:49.417Z,4
2015-02-17T18:31:07.717Z,4
2015-02-17T18:31:26.045Z,4
2015-02-17T18:31:44.357Z,4
2015-02-17T18:32:02.670Z,4
2015-02-17T18:32:21.000Z,4
2015-02-17T18:32:39.328Z,4
2015-02-17T18:32:57.640Z,4
2015-02-17T18:33:15.971Z,4
2015-02-17T18:33:34.283Z,4
2015-02-17T18:33:52.611Z,4
2015-02-17T18:34:10.924Z,4
2015-02-17T18:34:29.255Z,4
2015-02-17T18:34:47.567Z,4
2015-02-17T18:35:05.895Z,4
2015-02-17T18:35:24.210Z,4
2015-02-17T18:35:41.882Z,4
2015-02-17T18:36:00.210Z,4
2015-02-17T18:36:18.554Z,4
2015-02-17T18:36:36.869Z,4
2015-02-17T18:36:55.182Z,4
2015-02-17T18:37:13.510Z,5
2015-02-17T18:37:31.168Z,4
2015-02-17T18:37:48.840Z,4
2015-02-17T18:38:07.152Z,4
2015-02-17T18:38:24.824Z,4
2015-02-17T18:38:43.155Z,4
2015-02-17T18:39:01.468Z,4
2015-02-17T18:39:19.124Z,4
2015-02-17T18:39:37.439Z,4
2015-02-17T18:39:55.767Z,4
2015-02-17T18:40:14.079Z,4
2015-02-17T18:40:32.392Z,4
2015-02-17T18:40:50.722Z,4
2015-02-17T18:41:09.034Z,4
2015-02-17T18:41:27.347Z,4
2015-02-17T18:41:45.662Z,4
2015-02-17T18:42:03.991Z,4
2015-02-17T18:42:22.319Z,4
2015-02-17T18:42:40.631Z,4
2015-02-17T18:42:58.947Z,4
2015-02-17T18:43:17.275Z,4
2015-02-17T18:43:35.587Z,4
2015-02-17T18:43:53.917Z,4
2015-02-17T18:44:12.230Z,4
2015-02-17T18:44:30.558Z,4
2015-02-17T18:44:48.871Z,4
2015-02-17T18:45:07.201Z,4
2015-02-17T18:45:25.513Z,4
2015-02-17T18:45:43.873Z,4
2015-02-17T18:46:01.501Z,4
2015-02-17T18:46:19.813Z,4
2015-02-17T18:46:37.485Z,4
2015-02-17T18:46:55.797Z,4
2015-02-17T18:47:14.128Z,4
2015-02-17T18:47:32.440Z,4
2015-02-17T18:47:50.753Z,4
2015-02-17T18:48:08.442Z,4
2015-02-17T18:48:26.098Z,4
2015-02-17T18:48:44.426Z,4
2015-02-17T18:49:02.739Z,4
2015-02-17T18:49:21.055Z,4
2015-02-17T18:49:39.368Z,4
2015-02-17T18:49:57.040Z,4
2015-02-17T18:50:15.354Z,4
2015-02-17T18:50:33.682Z,4
2015-02-17T18:50:52.011Z,4
2015-02-17T18:51:10.323Z,4
2015-02-17T18:51:28.654Z,4
2015-02-17T18:51:46.967Z,4
2015-02-17T18:52:05.279Z,4
2015-02-17T18:52:23.608Z,4
2015-02-17T18:52:41.921Z,4
2015-02-17T18:53:00.249Z,4
2015-02-17T18:53:18.561Z,4
2015-02-17T18:53:36.236Z,4
2015-02-17T18:53:54.549Z,4
2015-02-17T18:54:12.861Z,4
2015-02-17T18:54:31.176Z,4
2015-02-17T18:54:49.504Z,4
2015-02-17T18:55:07.816Z,4
2015-02-17T18:55:26.145Z,4
2015-02-17T18:55:43.804Z,4
2015-02-17T18:56:02.257Z,4
2015-02-17T18:56:20.585Z,4
2015-02-17T18:56:38.901Z,4
2015-02-17T18:56:57.213Z,4
2015-02-17T18:57:15.526Z,4
2015-02-17T18:57:33.856Z,4
2015-02-17T18:57:51.512Z,4
2015-02-17T18:58:09.324Z,4
2015-02-17T18:58:27.637Z,5
2015-02-17T18:58:45.295Z,4
2015-02-17T18:59:03.623Z,4
2015-02-17T18:59:21.951Z,4
2015-02-17T18:59:39.626Z,4
2015-02-17T18:59:57.939Z,4
2015-02-17T19:00:16.251Z,4
2015-02-17T19:00:34.579Z,4
2015-02-17T19:00:52.894Z,4
2015-02-17T19:01:11.222Z,4
2015-02-17T19:01:29.566Z,4
2015-02-17T19:01:47.865Z,4
2015-02-17T19:02:06.177Z,4
2015-02-17T19:02:24.505Z,4
2015-02-17T19:02:42.818Z,4
2015-02-17T19:03:01.149Z,4
2015-02-17T19:03:19.461Z,4
2015-02-17T19:03:37.133Z,4
2015-02-17T19:03:55.448Z,4
2015-02-17T19:04:13.120Z,4
2015-02-17T19:04:31.432Z,4
2015-02-17T19:04:49.760Z,4
2015-02-17T19:05:08.075Z,4
2015-02-17T19:05:26.403Z,4
2015-02-17T19:05:44.715Z,4
2015-02-17T19:06:03.047Z,4
2015-02-17T19:06:20.718Z,4
2015-02-17T19:06:39.031Z,4
2015-02-17T19:06:56.047Z,4
2015-02-17T19:07:14.377Z,4
2015-02-17T19:07:32.033Z,4
2015-02-17T19:07:49.705Z,4
2015-02-17T19:08:08.036Z,4
2015-02-17T19:08:26.348Z,4
2015-02-17T19:08:44.661Z,4
2015-02-17T19:09:02.989Z,4
2015-02-17T19:09:20.648Z,4
2015-02-17T19:09:38.961Z,4
2015-02-17T19:09:57.289Z,4
2015-02-17T19:10:15.603Z,4
2015-02-17T19:10:33.932Z,4
2015-02-17T19:10:52.244Z,4
2015-02-17T19:11:10.572Z,4
2015-02-17T19:11:28.230Z,4
2015-02-17T19:11:46.543Z,4
2015-02-17T19:12:04.871Z,4
2015-02-17T19:12:23.187Z,4
2015-02-17T19:12:41.515Z,4
2015-02-17T19:12:59.827Z,4
2015-02-17T19:13:18.140Z,4
2015-02-17T19:13:36.470Z,4
2015-02-17T19:13:54.798Z,4
2015-02-17T19:14:13.110Z,4
2015-02-17T19:14:30.784Z,4
2015-02-17T19:14:49.097Z,4
2015-02-17T19:15:07.425Z,4
2015-02-17T19:15:25.769Z,4
2015-02-17T19:15:44.069Z,4
2015-02-17T19:16:02.381Z,4
2015-02-17T19:16:20.709Z,4
2015-02-17T19:16:38.368Z,4
2015-02-17T19:16:56.697Z,4
2015-02-17T19:17:15.009Z,4
2015-02-17T19:17:33.462Z,4
2015-02-17T19:17:51.792Z,4
2015-02-17T19:18:10.105Z,4
2015-02-17T19:18:28.417Z,4
2015-02-17T19:18:46.748Z,4
2015-02-17T19:19:04.405Z,4
2015-02-17T19:19:22.733Z,4
2015-02-17T19:19:41.045Z,4
2015-02-17T19:19:59.360Z,4
2015-02-17T19:20:17.157Z,4
2015-02-17T19:20:35.485Z,4
2015-02-17T19:20:53.799Z,4
2015-02-17T19:21:12.127Z,4
2015-02-17T19:21:29.784Z,4
2015-02-17T19:21:48.112Z,4
2015-02-17T19:22:05.787Z,4
2015-02-17T19:22:24.240Z,4
2015-02-17T19:22:42.552Z,4
2015-02-17T19:23:00.882Z,4
2015-02-17T19:23:19.195Z,5
2015-02-17T19:23:37.648Z,4
2015-02-17T19:23:54.664Z,4
2015-02-17T19:24:12.338Z,4
2015-02-17T19:24:30.650Z,4
2015-02-17T19:24:48.978Z,4
2015-02-17T19:25:07.294Z,4
2015-02-17T19:25:25.622Z,4
2015-02-17T19:25:43.934Z,4
2015-02-17T19:26:02.262Z,4
2015-02-17T19:26:20.577Z,4
2015-02-17T19:26:38.905Z,4
2015-02-17T19:26:57.218Z,4
2015-02-17T19:27:15.549Z,4
2015-02-17T19:27:33.877Z,4
2015-02-17T19:27:52.189Z,4
2015-02-17T19:28:10.502Z,4
2015-02-17T19:28:28.833Z,4
2015-02-17T19:28:47.145Z,4
2015-02-17T19:29:05.458Z,4
2015-02-17T19:29:23.788Z,4
2015-02-17T19:29:42.101Z,4
2015-02-17T19:29:59.772Z,4
2015-02-17T19:30:18.085Z,4
2015-02-17T19:30:36.416Z,5
2015-02-17T19:30:54.729Z,4
2015-02-17T19:31:13.057Z,4
2015-02-17T19:31:30.074Z,4
2015-02-17T19:31:48.387Z,4
2015-02-17T19:32:06.699Z,4
2015-02-17T19:32:25.027Z,4
2015-02-17T19:32:42.701Z,4
2015-02-17T19:33:00.358Z,4
2015-02-17T19:33:18.686Z,4
2015-02-17T19:33:37.001Z,4
2015-02-17T19:33:55.329Z,4
2015-02-17T19:34:13.642Z,4
2015-02-17T19:34:31.954Z,4
2015-02-17T19:34:50.284Z,4
2015-02-17T19:35:08.597Z,4
2015-02-17T19:35:26.925Z,4
2015-02-17T19:35:45.241Z,4
2015-02-17T19:36:02.897Z,4
2015-02-17T19:36:21.225Z,4
2015-02-17T19:36:39.553Z,4
2015-02-17T19:36:57.868Z,4
2015-02-17T19:37:16.196Z,4
2015-02-17T19:37:34.508Z,4
2015-02-17T19:37:52.838Z,4
2015-02-17T19:38:11.151Z,4
2015-02-17T19:38:29.479Z,4
2015-02-17T19:38:47.791Z,4
2015-02-17T19:39:06.123Z,4
2015-02-17T19:39:24.435Z,4
2015-02-17T19:39:42.763Z,4
2015-02-17T19:40:01.078Z,4
2015-02-17T19:40:19.390Z,4
2015-02-17T19:40:37.703Z,4
2015-02-17T19:40:56.031Z,4
2015-02-17T19:41:14.362Z,4
2015-02-17T19:41:32.674Z,4
2015-02-17T19:41:50.987Z,4
2015-02-17T19:42:09.317Z,5
2015-02-17T19:42:27.630Z,4
2015-02-17T19:42:45.286Z,4
2015-02-17T19:43:03.614Z,4
2015-02-17T19:43:21.929Z,4
2015-02-17T19:43:40.242Z,4
2015-02-17T19:43:57.914Z,4
2015-02-17T19:44:16.244Z,4
2015-02-17T19:44:33.900Z,4
2015-02-17T19:44:52.228Z,4
2015-02-17T19:45:10.541Z,4
2015-02-17T19:45:28.872Z,4
2015-02-17T19:45:47.184Z,4
2015-02-17T19:46:05.497Z,4
2015-02-17T19:46:23.827Z,4
2015-02-17T19:46:42.140Z,4
2015-02-17T19:46:59.811Z,4
2015-02-17T19:47:18.140Z,4
2015-02-17T19:47:36.454Z,4
2015-02-17T19:47:54.907Z,4
2015-02-17T19:48:13.360Z,3
2015-02-17T19:48:31.691Z,4
2015-02-17T19:48:50.004Z,4
2015-02-17T19:49:07.676Z,4
2015-02-17T19:49:25.988Z,4
2015-02-17T19:49:44.318Z,4
2015-02-17T19:50:02.647Z,4
2015-02-17T19:50:20.959Z,4
2015-02-17T19:50:39.290Z,4
2015-02-17T19:50:57.603Z,4
2015-02-17T19:51:15.931Z,4
2015-02-17T19:51:34.243Z,4
2015-02-17T19:51:52.573Z,4
2015-02-17T19:52:10.902Z,4
2015-02-17T19:52:29.214Z,4
2015-02-17T19:52:47.545Z,4
2015-02-17T19:53:05.873Z,4
2015-02-17T19:53:24.170Z,4
2015-02-17T19:53:42.498Z,4
2015-02-17T19:54:00.813Z,4
2015-02-17T19:54:19.141Z,4
2015-02-17T19:54:37.453Z,4
2015-02-17T19:54:55.127Z,4
2015-02-17T19:55:12.909Z,4
2015-02-17T19:55:31.237Z,4
2015-02-17T19:55:48.893Z,4
2015-02-17T19:56:07.224Z,4
2015-02-17T19:56:25.537Z,4
2015-02-17T19:56:43.865Z,4
2015-02-17T19:57:02.321Z,4
2015-02-17T19:57:20.633Z,4
2015-02-17T19:57:38.961Z,4
2015-02-17T19:57:56.618Z,4
2015-02-17T19:58:14.932Z,4
2015-02-17T19:58:33.260Z,4
2015-02-17T19:58:51.588Z,4
2015-02-17T19:59:09.903Z,4
2015-02-17T19:59:28.215Z,4
2015-02-17T19:59:46.544Z,4
2015-02-17T20:00:04.200Z,4
2015-02-17T20:00:22.534Z,4
2015-02-17T20:00:40.846Z,4
2015-02-17T20:00:59.175Z,4
2015-02-17T20:01:16.845Z,4
2015-02-17T20:01:35.173Z,4
2015-02-17T20:01:53.485Z,4
2015-02-17T20:02:11.814Z,4
2015-02-17T20:02:30.140Z,4
2015-02-17T20:02:48.453Z,4
2015-02-17T20:03:06.765Z,4
2015-02-17T20:03:25.106Z,4
2015-02-17T20:03:43.434Z,4
2015-02-17T20:04:01.747Z,4
2015-02-17T20:04:20.075Z,4
2015-02-17T20:04:38.402Z,4
2015-02-17T20:04:56.731Z,4
2015-02-17T20:05:15.043Z,4
2015-02-17T20:05:33.365Z,4
2015-02-17T20:05:51.693Z,4
2015-02-17T20:06:10.005Z,4
2015-02-17T20:06:28.333Z,4
2015-02-17T20:06:46.652Z,4
2015-02-17T20:07:04.980Z,4
2015-02-17T20:07:23.292Z,4
2015-02-17T20:07:41.628Z,4
2015-02-17T20:07:59.940Z,4
2015-02-17T20:08:17.596Z,4
2015-02-17T20:08:36.049Z,4
2015-02-17T20:08:54.369Z,4
2015-02-17T20:09:12.697Z,4
2015-02-17T20:09:31.010Z,4
2015-02-17T20:09:49.344Z,4
2015-02-17T20:10:07.656Z,4
2015-02-17T20:10:25.969Z,4
2015-02-17T20:10:44.297Z,4
2015-02-17T20:11:02.614Z,4
2015-02-17T20:11:20.942Z,4
2015-02-17T20:11:39.255Z,4
2015-02-17T20:11:57.571Z,4
2015-02-17T20:12:15.900Z,4
2015-02-17T20:12:34.212Z,4
2015-02-17T20:12:52.525Z,4
2015-02-17T20:13:10.857Z,4
2015-02-17T20:13:29.169Z,4
2015-02-17T20:13:47.497Z,4
2015-02-17T20:14:05.814Z,4
2015-02-17T20:14:24.267Z,4
2015-02-17T20:14:42.579Z,4
2015-02-17T20:15:00.908Z,4
2015-02-17T20:15:19.240Z,4
2015-02-17T20:15:37.552Z,4
2015-02-17T20:15:55.880Z,4
2015-02-17T20:16:14.196Z,4
2015-02-17T20:16:32.524Z,4
2015-02-17T20:16:50.836Z,4
2015-02-17T20:17:09.165Z,4
2015-02-17T20:17:27.479Z,4
2015-02-17T20:17:45.807Z,4
2015-02-17T20:18:04.135Z,4
2015-02-17T20:18:22.451Z,4
2015-02-17T20:18:40.779Z,4
2015-02-17T20:18:59.091Z,4
2015-02-17T20:19:17.423Z,4
2015-02-17T20:19:35.079Z,4
2015-02-17T20:19:53.407Z,4
2015-02-17T20:20:11.719Z,4
2015-02-17T20:20:30.035Z,4
2015-02-17T20:20:48.363Z,4
2015-02-17T20:21:06.691Z,4
2015-02-17T20:21:25.006Z,4
2015-02-17T20:21:43.318Z,4
2015-02-17T20:22:01.662Z,4
2015-02-17T20:22:18.712Z,4
2015-02-17T20:22:37.040Z,4
2015-02-17T20:22:55.352Z,4
2015-02-17T20:23:13.665Z,4
2015-02-17T20:23:31.996Z,4
2015-02-17T20:23:50.309Z,4
2015-02-17T20:24:08.637Z,4
2015-02-17T20:24:26.952Z,4
2015-02-17T20:24:45.280Z,4
2015-02-17T20:25:03.608Z,4
2015-02-17T20:25:21.907Z,4
2015-02-17T20:25:40.235Z,4
2015-02-17T20:25:58.548Z,4
2015-02-17T20:26:16.878Z,4
2015-02-17T20:26:35.191Z,4
2015-02-17T20:26:53.519Z,4
2015-02-17T20:27:11.831Z,4
2015-02-17T20:27:30.147Z,4
2015-02-17T20:27:48.459Z,4
2015-02-17T20:28:06.787Z,4
2015-02-17T20:28:25.102Z,4
2015-02-17T20:28:43.430Z,4
2015-02-17T20:29:01.742Z,4
2015-02-17T20:29:20.073Z,4
2015-02-17T20:29:38.385Z,4
2015-02-17T20:29:56.698Z,4
2015-02-17T20:30:15.026Z,4
2015-02-17T20:30:33.341Z,4
2015-02-17T20:30:51.669Z,4
2015-02-17T20:31:09.997Z,4
2015-02-17T20:31:28.312Z,4
2015-02-17T20:31:46.624Z,4
2015-02-17T20:32:04.937Z,4
2015-02-17T20:32:22.609Z,4
2015-02-17T20:32:40.939Z,4
2015-02-17T20:32:58.611Z,4
2015-02-17T20:33:16.283Z,4
2015-02-17T20:33:34.598Z,4
2015-02-17T20:33:52.270Z,4
2015-02-17T20:34:10.598Z,3
2015-02-17T20:34:28.254Z,4
2015-02-17T20:34:46.585Z,4
2015-02-17T20:35:04.897Z,4
2015-02-17T20:35:23.225Z,4
2015-02-17T20:35:41.541Z,4
2015-02-17T20:35:59.884Z,4
2015-02-17T20:36:18.197Z,4
2015-02-17T20:36:36.541Z,4
2015-02-17T20:36:54.841Z,4
2015-02-17T20:37:13.153Z,4
2015-02-17T20:37:31.481Z,4
2015-02-17T20:37:49.796Z,4
2015-02-17T20:38:08.124Z,4
2015-02-17T20:38:26.436Z,4
2015-02-17T20:38:44.751Z,4
2015-02-17T20:39:03.063Z,4
2015-02-17T20:39:21.391Z,4
2015-02-17T20:39:39.704Z,4
2015-02-17T20:39:58.019Z,4
2015-02-17T20:40:16.488Z,4
2015-02-17T20:40:34.801Z,4
2015-02-17T20:40:53.115Z,4
2015-02-17T20:41:11.443Z,4